sensor_id;sensor_type;location;lat;lon;timestamp;temperature;humidity
10964;DHT22;5534;48.784;9.190;2023-04-23T00:01:05;16.50;99.90
10964;DHT22;5534;48.784;9.190;2023-04-23T00:03:31;16.40;99.90
10964;DHT22;5534;48.784;9.190;2023-04-23T00:06:07;16.40;99.90
10964;DHT22;5534;48.784;9.190;2023-04-23T00:08:34;16.40;99.90
10964;DHT22;5534;48.784;9.190;2023-04-23T00:11:02;16.50;99.90
10964;DHT22;5534;48.784;9.190;2023-04-23T00:13:28;16.50;99.90
10964;DHT22;5534;48.784;9.190;2023-04-23T00:15:53;16.50;99.90
10964;DHT22;5534;48.784;9.190;2023-04-23T00:18:19;16.60;99.90
10964;DHT22;5534;48.784;9.190;2023-04-23T00:20:45;16.50;99.90
10964;DHT22;5534;48.784;9.190;2023-04-23T00:23:11;16.40;99.90
10964;DHT22;5534;48.784;9.190;2023-04-23T00:25:37;16.50;99.90
10964;DHT22;5534;48.784;9.190;2023-04-23T00:28:03;16.40;99.90
10964;DHT22;5534;48.784;9.190;2023-04-23T00:30:28;16.30;99.90
10964;DHT22;5534;48.784;9.190;2023-04-23T00:32:54;16.30;99.90
10964;DHT22;5534;48.784;9.190;2023-04-23T00:35:20;16.20;99.90
10964;DHT22;5534;48.784;9.190;2023-04-23T00:37:46;16.10;99.90
10964;DHT22;5534;48.784;9.190;2023-04-23T00:40:12;16.30;99.90
10964;DHT22;5534;48.784;9.190;2023-04-23T00:42:38;16.10;99.90
10964;DHT22;5534;48.784;9.190;2023-04-23T00:45:06;16.20;99.90
10964;DHT22;5534;48.784;9.190;2023-04-23T00:47:33;16.10;99.90
10964;DHT22;5534;48.784;9.190;2023-04-23T00:50:01;16.20;99.90
10964;DHT22;5534;48.784;9.190;2023-04-23T00:52:27;16.10;99.90
10964;DHT22;5534;48.784;9.190;2023-04-23T00:54:54;16.20;99.90
10964;DHT22;5534;48.784;9.190;2023-04-23T00:57:22;16.20;99.90
10964;DHT22;5534;48.784;9.190;2023-04-23T00:59:48;16.20;99.90
10964;DHT22;5534;48.784;9.190;2023-04-23T01:02:14;16.10;99.90
10964;DHT22;5534;48.784;9.190;2023-04-23T01:04:42;16.20;99.90
10964;DHT22;5534;48.784;9.190;2023-04-23T01:07:10;16.20;99.90
10964;DHT22;5534;48.784;9.190;2023-04-23T01:09:37;16.10;99.90
10964;DHT22;5534;48.784;9.190;2023-04-23T01:12:04;16.10;99.90
10964;DHT22;5534;48.784;9.190;2023-04-23T01:14:30;16.00;99.90
10964;DHT22;5534;48.784;9.190;2023-04-23T01:16:56;16.00;99.90
10964;DHT22;5534;48.784;9.190;2023-04-23T01:19:23;16.00;99.90
10964;DHT22;5534;48.784;9.190;2023-04-23T01:21:50;15.90;99.90
10964;DHT22;5534;48.784;9.190;2023-04-23T01:24:15;16.10;99.90
10964;DHT22;5534;48.784;9.190;2023-04-23T01:26:41;16.10;99.90
10964;DHT22;5534;48.784;9.190;2023-04-23T01:29:08;16.00;99.90
10964;DHT22;5534;48.784;9.190;2023-04-23T01:31:34;16.10;99.90
10964;DHT22;5534;48.784;9.190;2023-04-23T01:34:01;16.10;99.90
10964;DHT22;5534;48.784;9.190;2023-04-23T01:36:27;16.00;99.90
10964;DHT22;5534;48.784;9.190;2023-04-23T01:38:54;16.00;99.90
10964;DHT22;5534;48.784;9.190;2023-04-23T01:41:19;15.90;99.90
10964;DHT22;5534;48.784;9.190;2023-04-23T01:43:45;16.00;99.90
10964;DHT22;5534;48.784;9.190;2023-04-23T01:46:11;15.90;99.90
10964;DHT22;5534;48.784;9.190;2023-04-23T01:48:37;15.90;99.90
10964;DHT22;5534;48.784;9.190;2023-04-23T01:51:03;15.90;99.90
10964;DHT22;5534;48.784;9.190;2023-04-23T01:53:28;16.00;99.90
10964;DHT22;5534;48.784;9.190;2023-04-23T01:55:55;16.00;99.90
10964;DHT22;5534;48.784;9.190;2023-04-23T01:58:22;15.90;99.90
10964;DHT22;5534;48.784;9.190;2023-04-23T02:00:49;15.90;99.90
10964;DHT22;5534;48.784;9.190;2023-04-23T02:03:15;15.90;99.90
10964;DHT22;5534;48.784;9.190;2023-04-23T02:05:41;15.80;99.90
10964;DHT22;5534;48.784;9.190;2023-04-23T02:08:07;15.80;99.90
10964;DHT22;5534;48.784;9.190;2023-04-23T02:10:33;15.70;99.90
10964;DHT22;5534;48.784;9.190;2023-04-23T02:13:00;15.70;99.90
10964;DHT22;5534;48.784;9.190;2023-04-23T02:15:27;15.70;99.90
10964;DHT22;5534;48.784;9.190;2023-04-23T02:17:53;15.80;99.90
10964;DHT22;5534;48.784;9.190;2023-04-23T02:20:19;15.70;99.90
10964;DHT22;5534;48.784;9.190;2023-04-23T02:22:49;15.80;99.90
10964;DHT22;5534;48.784;9.190;2023-04-23T02:25:17;15.70;99.90
10964;DHT22;5534;48.784;9.190;2023-04-23T02:27:43;15.70;99.90
10964;DHT22;5534;48.784;9.190;2023-04-23T02:30:10;15.80;99.90
10964;DHT22;5534;48.784;9.190;2023-04-23T02:32:36;15.50;99.90
10964;DHT22;5534;48.784;9.190;2023-04-23T02:35:03;15.60;99.90
10964;DHT22;5534;48.784;9.190;2023-04-23T02:37:34;15.60;99.90
10964;DHT22;5534;48.784;9.190;2023-04-23T02:40:00;15.50;99.90
10964;DHT22;5534;48.784;9.190;2023-04-23T02:42:26;15.60;99.90
10964;DHT22;5534;48.784;9.190;2023-04-23T02:44:51;15.50;99.90
10964;DHT22;5534;48.784;9.190;2023-04-23T02:47:18;15.50;99.90
10964;DHT22;5534;48.784;9.190;2023-04-23T02:49:43;15.50;99.90
10964;DHT22;5534;48.784;9.190;2023-04-23T02:52:09;15.60;99.90
10964;DHT22;5534;48.784;9.190;2023-04-23T02:54:35;15.40;99.90
10964;DHT22;5534;48.784;9.190;2023-04-23T02:57:04;15.40;99.90
10964;DHT22;5534;48.784;9.190;2023-04-23T02:59:30;15.50;99.90
10964;DHT22;5534;48.784;9.190;2023-04-23T03:01:56;15.50;99.90
10964;DHT22;5534;48.784;9.190;2023-04-23T03:04:22;15.50;99.90
10964;DHT22;5534;48.784;9.190;2023-04-23T03:06:48;15.40;99.90
10964;DHT22;5534;48.784;9.190;2023-04-23T03:09:13;15.40;99.90
10964;DHT22;5534;48.784;9.190;2023-04-23T03:11:39;15.40;99.90
10964;DHT22;5534;48.784;9.190;2023-04-23T03:14:05;15.40;99.90
10964;DHT22;5534;48.784;9.190;2023-04-23T03:16:31;15.40;99.90
10964;DHT22;5534;48.784;9.190;2023-04-23T03:18:57;15.40;99.90
10964;DHT22;5534;48.784;9.190;2023-04-23T03:21:23;15.40;99.90
10964;DHT22;5534;48.784;9.190;2023-04-23T03:23:49;15.30;99.90
10964;DHT22;5534;48.784;9.190;2023-04-23T03:26:16;15.30;99.90
10964;DHT22;5534;48.784;9.190;2023-04-23T03:28:42;15.30;99.90
10964;DHT22;5534;48.784;9.190;2023-04-23T03:31:08;15.20;99.90
10964;DHT22;5534;48.784;9.190;2023-04-23T03:33:33;15.30;99.90
10964;DHT22;5534;48.784;9.190;2023-04-23T03:35:59;15.30;99.90
10964;DHT22;5534;48.784;9.190;2023-04-23T03:38:25;15.30;99.90
10964;DHT22;5534;48.784;9.190;2023-04-23T03:40:51;15.30;99.90
10964;DHT22;5534;48.784;9.190;2023-04-23T03:43:17;15.30;99.90
10964;DHT22;5534;48.784;9.190;2023-04-23T03:45:43;15.20;99.90
10964;DHT22;5534;48.784;9.190;2023-04-23T03:48:09;15.10;99.90
10964;DHT22;5534;48.784;9.190;2023-04-23T03:50:34;15.00;99.90
10964;DHT22;5534;48.784;9.190;2023-04-23T03:53:05;15.00;99.90
10964;DHT22;5534;48.784;9.190;2023-04-23T03:55:31;14.90;99.90
10964;DHT22;5534;48.784;9.190;2023-04-23T03:57:58;15.10;99.90
10964;DHT22;5534;48.784;9.190;2023-04-23T04:00:26;15.00;99.90
10964;DHT22;5534;48.784;9.190;2023-04-23T04:02:52;15.10;99.90
10964;DHT22;5534;48.784;9.190;2023-04-23T04:05:17;15.10;99.90
10964;DHT22;5534;48.784;9.190;2023-04-23T04:07:43;15.10;99.90
10964;DHT22;5534;48.784;9.190;2023-04-23T04:10:09;15.10;99.90
10964;DHT22;5534;48.784;9.190;2023-04-23T04:12:35;15.10;99.90
10964;DHT22;5534;48.784;9.190;2023-04-23T04:15:02;15.10;99.90
10964;DHT22;5534;48.784;9.190;2023-04-23T04:17:28;15.10;99.90
10964;DHT22;5534;48.784;9.190;2023-04-23T04:19:53;15.10;99.90
10964;DHT22;5534;48.784;9.190;2023-04-23T04:22:19;15.00;99.90
10964;DHT22;5534;48.784;9.190;2023-04-23T04:24:45;15.00;99.90
10964;DHT22;5534;48.784;9.190;2023-04-23T04:27:12;15.00;99.90
10964;DHT22;5534;48.784;9.190;2023-04-23T04:29:38;15.00;99.90
10964;DHT22;5534;48.784;9.190;2023-04-23T04:32:07;15.00;99.90
10964;DHT22;5534;48.784;9.190;2023-04-23T04:34:32;15.00;99.90
10964;DHT22;5534;48.784;9.190;2023-04-23T04:37:00;15.00;99.90
10964;DHT22;5534;48.784;9.190;2023-04-23T04:39:26;14.90;99.90
10964;DHT22;5534;48.784;9.190;2023-04-23T04:41:52;14.90;99.90
10964;DHT22;5534;48.784;9.190;2023-04-23T04:44:18;14.90;99.90
10964;DHT22;5534;48.784;9.190;2023-04-23T04:46:44;14.70;99.90
10964;DHT22;5534;48.784;9.190;2023-04-23T04:49:10;14.80;99.90
10964;DHT22;5534;48.784;9.190;2023-04-23T04:51:39;14.90;99.90
10964;DHT22;5534;48.784;9.190;2023-04-23T04:54:07;14.80;99.90
10964;DHT22;5534;48.784;9.190;2023-04-23T04:56:33;14.90;99.90
10964;DHT22;5534;48.784;9.190;2023-04-23T04:58:59;14.90;99.90
10964;DHT22;5534;48.784;9.190;2023-04-23T05:01:27;14.90;99.90
10964;DHT22;5534;48.784;9.190;2023-04-23T05:03:56;14.80;99.90
10964;DHT22;5534;48.784;9.190;2023-04-23T05:06:22;14.80;99.90
10964;DHT22;5534;48.784;9.190;2023-04-23T05:08:48;14.90;99.90
10964;DHT22;5534;48.784;9.190;2023-04-23T05:11:18;14.90;99.90
10964;DHT22;5534;48.784;9.190;2023-04-23T05:13:45;14.90;99.90
10964;DHT22;5534;48.784;9.190;2023-04-23T05:16:12;14.90;99.90
10964;DHT22;5534;48.784;9.190;2023-04-23T05:18:38;14.90;99.90
10964;DHT22;5534;48.784;9.190;2023-04-23T05:21:04;15.00;99.90
10964;DHT22;5534;48.784;9.190;2023-04-23T05:23:31;15.00;99.90
10964;DHT22;5534;48.784;9.190;2023-04-23T05:25:57;15.10;99.90
10964;DHT22;5534;48.784;9.190;2023-04-23T05:28:23;15.10;99.90
10964;DHT22;5534;48.784;9.190;2023-04-23T05:30:50;15.20;99.90
10964;DHT22;5534;48.784;9.190;2023-04-23T05:33:16;15.20;99.90
10964;DHT22;5534;48.784;9.190;2023-04-23T05:35:42;15.20;99.90
10964;DHT22;5534;48.784;9.190;2023-04-23T05:38:09;15.30;99.90
10964;DHT22;5534;48.784;9.190;2023-04-23T05:40:36;15.30;99.90
10964;DHT22;5534;48.784;9.190;2023-04-23T05:43:02;15.50;99.90
10964;DHT22;5534;48.784;9.190;2023-04-23T05:45:28;15.50;99.90
10964;DHT22;5534;48.784;9.190;2023-04-23T05:47:54;15.50;99.90
10964;DHT22;5534;48.784;9.190;2023-04-23T05:50:20;15.40;99.90
10964;DHT22;5534;48.784;9.190;2023-04-23T05:52:46;15.50;99.90
10964;DHT22;5534;48.784;9.190;2023-04-23T05:55:12;15.50;99.90
10964;DHT22;5534;48.784;9.190;2023-04-23T05:57:40;15.50;99.90
10964;DHT22;5534;48.784;9.190;2023-04-23T06:00:07;15.50;99.90
10964;DHT22;5534;48.784;9.190;2023-04-23T06:02:37;15.70;99.90
10964;DHT22;5534;48.784;9.190;2023-04-23T06:05:03;15.60;99.90
10964;DHT22;5534;48.784;9.190;2023-04-23T06:07:30;15.70;99.90
10964;DHT22;5534;48.784;9.190;2023-04-23T06:09:56;15.70;99.90
10964;DHT22;5534;48.784;9.190;2023-04-23T06:12:22;15.70;99.90
10964;DHT22;5534;48.784;9.190;2023-04-23T06:14:48;15.90;99.90
10964;DHT22;5534;48.784;9.190;2023-04-23T06:17:13;15.90;99.90
10964;DHT22;5534;48.784;9.190;2023-04-23T06:19:40;15.80;99.90
10964;DHT22;5534;48.784;9.190;2023-04-23T06:22:06;15.60;99.90
10964;DHT22;5534;48.784;9.190;2023-04-23T06:24:32;15.50;99.90
10964;DHT22;5534;48.784;9.190;2023-04-23T06:26:58;15.50;99.90
10964;DHT22;5534;48.784;9.190;2023-04-23T06:29:23;15.50;99.90
10964;DHT22;5534;48.784;9.190;2023-04-23T06:31:49;15.60;99.90
10964;DHT22;5534;48.784;9.190;2023-04-23T06:34:15;15.70;99.90
10964;DHT22;5534;48.784;9.190;2023-04-23T06:36:41;15.60;99.90
10964;DHT22;5534;48.784;9.190;2023-04-23T06:39:08;15.60;99.90
10964;DHT22;5534;48.784;9.190;2023-04-23T06:41:33;15.60;99.90
10964;DHT22;5534;48.784;9.190;2023-04-23T06:43:59;15.90;99.90
10964;DHT22;5534;48.784;9.190;2023-04-23T06:46:25;16.10;99.90
10964;DHT22;5534;48.784;9.190;2023-04-23T06:48:51;16.50;99.90
10964;DHT22;5534;48.784;9.190;2023-04-23T06:51:16;16.80;99.90
10964;DHT22;5534;48.784;9.190;2023-04-23T06:53:43;17.20;99.90
10964;DHT22;5534;48.784;9.190;2023-04-23T06:56:09;17.10;99.90
10964;DHT22;5534;48.784;9.190;2023-04-23T06:58:35;17.50;99.90
10964;DHT22;5534;48.784;9.190;2023-04-23T07:01:01;18.80;99.90
10964;DHT22;5534;48.784;9.190;2023-04-23T07:03:32;20.10;99.90
10964;DHT22;5534;48.784;9.190;2023-04-23T07:05:58;20.90;99.90
10964;DHT22;5534;48.784;9.190;2023-04-23T07:08:24;21.60;99.90
10964;DHT22;5534;48.784;9.190;2023-04-23T07:10:50;21.30;99.90
10964;DHT22;5534;48.784;9.190;2023-04-23T07:13:16;21.40;99.90
10964;DHT22;5534;48.784;9.190;2023-04-23T07:15:42;21.70;99.90
10964;DHT22;5534;48.784;9.190;2023-04-23T07:18:08;21.10;99.90
10964;DHT22;5534;48.784;9.190;2023-04-23T07:20:34;21.10;99.90
10964;DHT22;5534;48.784;9.190;2023-04-23T07:23:00;20.50;99.90
10964;DHT22;5534;48.784;9.190;2023-04-23T07:25:29;19.70;99.90
10964;DHT22;5534;48.784;9.190;2023-04-23T07:27:55;19.20;99.90
10964;DHT22;5534;48.784;9.190;2023-04-23T07:30:23;19.00;99.90
10964;DHT22;5534;48.784;9.190;2023-04-23T07:32:49;18.40;99.90
10964;DHT22;5534;48.784;9.190;2023-04-23T07:35:15;18.50;99.90
10964;DHT22;5534;48.784;9.190;2023-04-23T07:37:41;18.80;99.90
10964;DHT22;5534;48.784;9.190;2023-04-23T07:40:07;19.60;99.90
10964;DHT22;5534;48.784;9.190;2023-04-23T07:42:33;20.70;99.90
10964;DHT22;5534;48.784;9.190;2023-04-23T07:45:00;21.50;99.90
10964;DHT22;5534;48.784;9.190;2023-04-23T07:47:27;21.60;99.90
10964;DHT22;5534;48.784;9.190;2023-04-23T07:49:53;20.90;99.90
10964;DHT22;5534;48.784;9.190;2023-04-23T07:52:18;19.90;99.90
10964;DHT22;5534;48.784;9.190;2023-04-23T07:54:44;19.90;99.90
10964;DHT22;5534;48.784;9.190;2023-04-23T07:57:11;19.50;99.90
10964;DHT22;5534;48.784;9.190;2023-04-23T07:59:36;18.80;99.90
10964;DHT22;5534;48.784;9.190;2023-04-23T08:02:05;18.30;99.90
10964;DHT22;5534;48.784;9.190;2023-04-23T08:04:31;17.90;99.90
10964;DHT22;5534;48.784;9.190;2023-04-23T08:06:57;18.10;99.90
10964;DHT22;5534;48.784;9.190;2023-04-23T08:09:23;18.20;99.90
10964;DHT22;5534;48.784;9.190;2023-04-23T08:11:49;17.90;99.90
10964;DHT22;5534;48.784;9.190;2023-04-23T08:14:16;17.50;99.90
10964;DHT22;5534;48.784;9.190;2023-04-23T08:16:42;17.10;99.90
10964;DHT22;5534;48.784;9.190;2023-04-23T08:19:08;17.00;99.90
10964;DHT22;5534;48.784;9.190;2023-04-23T08:21:34;16.90;99.90
10964;DHT22;5534;48.784;9.190;2023-04-23T08:24:00;16.80;99.90
10964;DHT22;5534;48.784;9.190;2023-04-23T08:26:30;16.70;99.90
10964;DHT22;5534;48.784;9.190;2023-04-23T08:28:56;16.70;99.90
10964;DHT22;5534;48.784;9.190;2023-04-23T08:31:25;16.70;99.90
10964;DHT22;5534;48.784;9.190;2023-04-23T08:33:51;16.80;99.90
10964;DHT22;5534;48.784;9.190;2023-04-23T08:36:17;17.00;99.90
10964;DHT22;5534;48.784;9.190;2023-04-23T08:38:43;17.00;99.90
10964;DHT22;5534;48.784;9.190;2023-04-23T08:41:10;17.10;99.90
10964;DHT22;5534;48.784;9.190;2023-04-23T08:43:44;17.00;99.90
10964;DHT22;5534;48.784;9.190;2023-04-23T08:46:12;17.00;99.90
10964;DHT22;5534;48.784;9.190;2023-04-23T08:48:40;17.00;99.90
10964;DHT22;5534;48.784;9.190;2023-04-23T08:51:09;17.20;99.90
10964;DHT22;5534;48.784;9.190;2023-04-23T08:53:37;17.30;99.90
10964;DHT22;5534;48.784;9.190;2023-04-23T08:56:04;17.50;99.90
10964;DHT22;5534;48.784;9.190;2023-04-23T08:58:31;17.60;99.90
10964;DHT22;5534;48.784;9.190;2023-04-23T09:00:59;17.70;99.90
10964;DHT22;5534;48.784;9.190;2023-04-23T09:03:25;17.60;99.90
10964;DHT22;5534;48.784;9.190;2023-04-23T09:05:52;17.60;99.90
10964;DHT22;5534;48.784;9.190;2023-04-23T09:08:19;17.70;99.90
10964;DHT22;5534;48.784;9.190;2023-04-23T09:10:46;17.70;99.90
10964;DHT22;5534;48.784;9.190;2023-04-23T09:13:12;17.90;99.90
10964;DHT22;5534;48.784;9.190;2023-04-23T09:15:41;18.00;99.90
10964;DHT22;5534;48.784;9.190;2023-04-23T09:18:09;17.90;99.90
10964;DHT22;5534;48.784;9.190;2023-04-23T09:20:35;17.90;99.90
10964;DHT22;5534;48.784;9.190;2023-04-23T09:23:06;17.90;99.90
10964;DHT22;5534;48.784;9.190;2023-04-23T09:25:33;18.00;99.90
10964;DHT22;5534;48.784;9.190;2023-04-23T09:27:59;18.20;99.90
10964;DHT22;5534;48.784;9.190;2023-04-23T09:30:27;18.50;99.90
10964;DHT22;5534;48.784;9.190;2023-04-23T09:32:53;18.70;99.90
10964;DHT22;5534;48.784;9.190;2023-04-23T09:35:19;18.80;99.90
10964;DHT22;5534;48.784;9.190;2023-04-23T09:37:47;18.80;99.90
10964;DHT22;5534;48.784;9.190;2023-04-23T09:40:15;18.80;99.90
10964;DHT22;5534;48.784;9.190;2023-04-23T09:42:47;18.90;99.90
10964;DHT22;5534;48.784;9.190;2023-04-23T09:45:14;18.90;99.90
10964;DHT22;5534;48.784;9.190;2023-04-23T09:47:47;18.90;99.90
10964;DHT22;5534;48.784;9.190;2023-04-23T09:50:13;19.00;99.90
10964;DHT22;5534;48.784;9.190;2023-04-23T09:52:40;19.20;99.90
10964;DHT22;5534;48.784;9.190;2023-04-23T09:55:06;19.30;99.90
10964;DHT22;5534;48.784;9.190;2023-04-23T09:57:36;19.40;99.90
10964;DHT22;5534;48.784;9.190;2023-04-23T10:00:13;19.40;99.90
10964;DHT22;5534;48.784;9.190;2023-04-23T10:02:51;19.40;99.90
10964;DHT22;5534;48.784;9.190;2023-04-23T10:05:21;19.50;99.90
10964;DHT22;5534;48.784;9.190;2023-04-23T10:07:47;19.40;99.90
10964;DHT22;5534;48.784;9.190;2023-04-23T10:10:14;19.40;99.90
10964;DHT22;5534;48.784;9.190;2023-04-23T10:12:42;19.40;99.90
10964;DHT22;5534;48.784;9.190;2023-04-23T10:15:09;19.30;99.90
10964;DHT22;5534;48.784;9.190;2023-04-23T10:17:36;19.30;99.90
10964;DHT22;5534;48.784;9.190;2023-04-23T10:20:04;19.20;99.90
10964;DHT22;5534;48.784;9.190;2023-04-23T10:22:33;19.30;99.90
10964;DHT22;5534;48.784;9.190;2023-04-23T10:25:03;19.30;99.90
10964;DHT22;5534;48.784;9.190;2023-04-23T10:27:31;19.50;99.90
10964;DHT22;5534;48.784;9.190;2023-04-23T10:29:58;19.50;99.90
10964;DHT22;5534;48.784;9.190;2023-04-23T10:32:26;19.50;99.90
10964;DHT22;5534;48.784;9.190;2023-04-23T10:34:53;19.60;99.90
10964;DHT22;5534;48.784;9.190;2023-04-23T10:37:19;19.40;99.90
10964;DHT22;5534;48.784;9.190;2023-04-23T10:39:54;19.40;99.90
10964;DHT22;5534;48.784;9.190;2023-04-23T10:42:21;19.50;99.90
10964;DHT22;5534;48.784;9.190;2023-04-23T10:44:48;19.60;99.90
10964;DHT22;5534;48.784;9.190;2023-04-23T10:47:16;19.60;99.90
10964;DHT22;5534;48.784;9.190;2023-04-23T10:49:42;19.50;99.90
10964;DHT22;5534;48.784;9.190;2023-04-23T10:52:13;19.60;99.90
10964;DHT22;5534;48.784;9.190;2023-04-23T10:54:47;19.80;99.90
10964;DHT22;5534;48.784;9.190;2023-04-23T10:57:13;19.90;99.90
10964;DHT22;5534;48.784;9.190;2023-04-23T10:59:50;19.90;99.90
10964;DHT22;5534;48.784;9.190;2023-04-23T11:02:16;20.00;99.90
10964;DHT22;5534;48.784;9.190;2023-04-23T11:04:57;19.90;99.90
10964;DHT22;5534;48.784;9.190;2023-04-23T11:07:31;19.90;99.90
10964;DHT22;5534;48.784;9.190;2023-04-23T11:10:11;20.00;99.90
10964;DHT22;5534;48.784;9.190;2023-04-23T11:12:38;20.10;99.90
10964;DHT22;5534;48.784;9.190;2023-04-23T11:15:12;20.00;99.90
10964;DHT22;5534;48.784;9.190;2023-04-23T11:22:45;20.00;99.90
10964;DHT22;5534;48.784;9.190;2023-04-23T11:25:12;20.00;99.90
10964;DHT22;5534;48.784;9.190;2023-04-23T11:27:40;20.00;99.90
10964;DHT22;5534;48.784;9.190;2023-04-23T11:30:15;20.00;99.90
10964;DHT22;5534;48.784;9.190;2023-04-23T11:32:44;19.80;99.90
10964;DHT22;5534;48.784;9.190;2023-04-23T11:35:12;19.60;99.90
10964;DHT22;5534;48.784;9.190;2023-04-23T11:37:39;19.70;99.90
10964;DHT22;5534;48.784;9.190;2023-04-23T11:40:07;19.70;99.90
10964;DHT22;5534;48.784;9.190;2023-04-23T11:42:44;19.60;99.90
10964;DHT22;5534;48.784;9.190;2023-04-23T11:45:31;19.60;99.90
10964;DHT22;5534;48.784;9.190;2023-04-23T11:47:59;19.90;99.90
10964;DHT22;5534;48.784;9.190;2023-04-23T11:50:28;20.00;99.90
10964;DHT22;5534;48.784;9.190;2023-04-23T11:53:08;20.10;99.90
10964;DHT22;5534;48.784;9.190;2023-04-23T11:55:34;20.00;99.90
10964;DHT22;5534;48.784;9.190;2023-04-23T11:58:00;20.00;99.90
10964;DHT22;5534;48.784;9.190;2023-04-23T12:00:27;20.10;99.90
10964;DHT22;5534;48.784;9.190;2023-04-23T12:02:57;20.20;99.90
10964;DHT22;5534;48.784;9.190;2023-04-23T12:05:32;20.20;99.90
10964;DHT22;5534;48.784;9.190;2023-04-23T12:08:11;19.70;99.90
10964;DHT22;5534;48.784;9.190;2023-04-23T12:10:47;19.70;99.90
10964;DHT22;5534;48.784;9.190;2023-04-23T12:15:50;19.90;99.90
10964;DHT22;5534;48.784;9.190;2023-04-23T12:18:17;19.90;99.90
10964;DHT22;5534;48.784;9.190;2023-04-23T12:20:43;19.90;99.90
10964;DHT22;5534;48.784;9.190;2023-04-23T12:23:09;19.90;99.90
10964;DHT22;5534;48.784;9.190;2023-04-23T12:25:35;19.80;99.90
10964;DHT22;5534;48.784;9.190;2023-04-23T12:28:02;19.80;99.90
10964;DHT22;5534;48.784;9.190;2023-04-23T12:30:33;19.70;99.90
10964;DHT22;5534;48.784;9.190;2023-04-23T12:33:00;19.70;99.90
10964;DHT22;5534;48.784;9.190;2023-04-23T12:35:49;19.70;99.90
10964;DHT22;5534;48.784;9.190;2023-04-23T12:38:26;20.00;99.90
10964;DHT22;5534;48.784;9.190;2023-04-23T12:40:55;20.10;99.90
10964;DHT22;5534;48.784;9.190;2023-04-23T12:43:21;20.20;99.90
10964;DHT22;5534;48.784;9.190;2023-04-23T12:45:47;20.40;99.90
10964;DHT22;5534;48.784;9.190;2023-04-23T12:48:14;20.50;99.90
10964;DHT22;5534;48.784;9.190;2023-04-23T12:50:40;20.70;99.90
10964;DHT22;5534;48.784;9.190;2023-04-23T12:53:06;20.60;99.90
10964;DHT22;5534;48.784;9.190;2023-04-23T12:55:33;20.60;99.90
10964;DHT22;5534;48.784;9.190;2023-04-23T12:58:00;20.70;99.90
10964;DHT22;5534;48.784;9.190;2023-04-23T13:00:26;21.00;99.90
10964;DHT22;5534;48.784;9.190;2023-04-23T13:02:53;21.00;99.90
10964;DHT22;5534;48.784;9.190;2023-04-23T13:05:19;20.70;99.90
10964;DHT22;5534;48.784;9.190;2023-04-23T13:07:45;20.70;99.90
10964;DHT22;5534;48.784;9.190;2023-04-23T13:10:11;20.60;99.90
10964;DHT22;5534;48.784;9.190;2023-04-23T13:12:38;20.70;99.90
10964;DHT22;5534;48.784;9.190;2023-04-23T13:15:04;20.70;99.90
10964;DHT22;5534;48.784;9.190;2023-04-23T13:17:30;20.40;99.90
10964;DHT22;5534;48.784;9.190;2023-04-23T13:19:56;20.50;99.90
10964;DHT22;5534;48.784;9.190;2023-04-23T13:22:23;20.50;99.90
10964;DHT22;5534;48.784;9.190;2023-04-23T13:25:02;20.80;99.90
10964;DHT22;5534;48.784;9.190;2023-04-23T13:27:28;20.80;99.90
10964;DHT22;5534;48.784;9.190;2023-04-23T13:29:56;20.90;99.60
10964;DHT22;5534;48.784;9.190;2023-04-23T13:32:24;21.00;99.00
10964;DHT22;5534;48.784;9.190;2023-04-23T13:34:51;21.00;98.50
10964;DHT22;5534;48.784;9.190;2023-04-23T13:37:17;21.10;98.30
10964;DHT22;5534;48.784;9.190;2023-04-23T13:39:43;21.30;97.80
10964;DHT22;5534;48.784;9.190;2023-04-23T13:42:09;21.40;97.40
10964;DHT22;5534;48.784;9.190;2023-04-23T13:44:37;21.20;97.20
10964;DHT22;5534;48.784;9.190;2023-04-23T13:47:03;21.20;97.50
10964;DHT22;5534;48.784;9.190;2023-04-23T13:49:29;21.40;97.80
10964;DHT22;5534;48.784;9.190;2023-04-23T13:51:54;21.20;97.60
10964;DHT22;5534;48.784;9.190;2023-04-23T13:54:25;21.20;97.40
10964;DHT22;5534;48.784;9.190;2023-04-23T13:56:53;21.10;96.80
10964;DHT22;5534;48.784;9.190;2023-04-23T13:59:20;21.10;96.60
10964;DHT22;5534;48.784;9.190;2023-04-23T14:01:46;21.30;96.80
10964;DHT22;5534;48.784;9.190;2023-04-23T14:04:19;21.50;96.00
10964;DHT22;5534;48.784;9.190;2023-04-23T14:06:46;21.50;95.50
10964;DHT22;5534;48.784;9.190;2023-04-23T14:09:12;21.50;95.40
10964;DHT22;5534;48.784;9.190;2023-04-23T14:11:38;21.50;95.90
10964;DHT22;5534;48.784;9.190;2023-04-23T14:14:05;21.50;95.40
10964;DHT22;5534;48.784;9.190;2023-04-23T14:16:32;21.60;95.40
10964;DHT22;5534;48.784;9.190;2023-04-23T14:18:58;21.70;95.00
10964;DHT22;5534;48.784;9.190;2023-04-23T14:21:24;21.50;93.40
10964;DHT22;5534;48.784;9.190;2023-04-23T14:23:50;21.50;93.20
10964;DHT22;5534;48.784;9.190;2023-04-23T14:26:26;21.50;93.90
10964;DHT22;5534;48.784;9.190;2023-04-23T14:28:56;21.40;92.10
10964;DHT22;5534;48.784;9.190;2023-04-23T14:31:26;21.50;93.20
10964;DHT22;5534;48.784;9.190;2023-04-23T14:33:55;21.50;92.60
10964;DHT22;5534;48.784;9.190;2023-04-23T14:36:23;21.50;91.70
10964;DHT22;5534;48.784;9.190;2023-04-23T14:38:49;21.50;91.60
10964;DHT22;5534;48.784;9.190;2023-04-23T14:41:18;21.40;91.60
10964;DHT22;5534;48.784;9.190;2023-04-23T14:43:43;21.40;91.80
10964;DHT22;5534;48.784;9.190;2023-04-23T14:46:09;21.40;91.80
10964;DHT22;5534;48.784;9.190;2023-04-23T14:48:35;21.30;92.00
10964;DHT22;5534;48.784;9.190;2023-04-23T14:51:01;21.20;92.00
10964;DHT22;5534;48.784;9.190;2023-04-23T14:53:27;21.10;92.40
10964;DHT22;5534;48.784;9.190;2023-04-23T14:55:53;21.10;92.80
10964;DHT22;5534;48.784;9.190;2023-04-23T14:58:18;21.00;92.10
10964;DHT22;5534;48.784;9.190;2023-04-23T15:00:44;20.90;92.40
10964;DHT22;5534;48.784;9.190;2023-04-23T15:03:10;20.90;92.50
10964;DHT22;5534;48.784;9.190;2023-04-23T15:05:36;20.90;93.20
10964;DHT22;5534;48.784;9.190;2023-04-23T15:08:02;20.80;92.90
10964;DHT22;5534;48.784;9.190;2023-04-23T15:10:29;20.80;92.60
10964;DHT22;5534;48.784;9.190;2023-04-23T15:13:07;20.60;92.90
10964;DHT22;5534;48.784;9.190;2023-04-23T15:15:50;20.60;94.40
10964;DHT22;5534;48.784;9.190;2023-04-23T15:18:19;20.70;94.90
10964;DHT22;5534;48.784;9.190;2023-04-23T15:20:45;20.60;94.50
10964;DHT22;5534;48.784;9.190;2023-04-23T15:23:11;20.60;94.30
10964;DHT22;5534;48.784;9.190;2023-04-23T15:25:37;20.60;94.40
10964;DHT22;5534;48.784;9.190;2023-04-23T15:28:04;20.50;94.90
10964;DHT22;5534;48.784;9.190;2023-04-23T15:30:31;20.50;94.50
10964;DHT22;5534;48.784;9.190;2023-04-23T15:32:59;20.50;95.10
10964;DHT22;5534;48.784;9.190;2023-04-23T15:35:26;20.60;94.80
10964;DHT22;5534;48.784;9.190;2023-04-23T15:37:55;20.50;94.90
10964;DHT22;5534;48.784;9.190;2023-04-23T15:40:22;20.30;94.80
10964;DHT22;5534;48.784;9.190;2023-04-23T15:42:48;20.20;96.20
10964;DHT22;5534;48.784;9.190;2023-04-23T15:45:15;20.10;99.90
10964;DHT22;5534;48.784;9.190;2023-04-23T15:47:41;19.90;99.90
10964;DHT22;5534;48.784;9.190;2023-04-23T15:50:08;19.60;99.90
10964;DHT22;5534;48.784;9.190;2023-04-23T15:52:34;19.40;99.90